sensor_id;sensor_type;location;lat;lon;timestamp;P1;durP1;ratioP1;P2;durP2;ratioP2
76733;SDS011;65660;53.288;14.666;2023-12-14T00:00:26;15.37;;;8.80;;
76733;SDS011;65660;53.288;14.666;2023-12-14T00:05:46;17.50;;;9.60;;
76733;SDS011;65660;53.288;14.666;2023-12-14T00:10:47;16.90;;;9.93;;
76733;SDS011;65660;53.288;14.666;2023-12-14T00:15:47;18.07;;;8.87;;
76733;SDS011;65660;53.288;14.666;2023-12-14T00:20:48;15.47;;;8.03;;
76733;SDS011;65660;53.288;14.666;2023-12-14T00:25:48;15.13;;;8.50;;
76733;SDS011;65660;53.288;14.666;2023-12-14T00:30:49;17.23;;;9.27;;
76733;SDS011;65660;53.288;14.666;2023-12-14T00:35:49;13.37;;;7.80;;
76733;SDS011;65660;53.288;14.666;2023-12-14T00:40:50;14.00;;;8.03;;
76733;SDS011;65660;53.288;14.666;2023-12-14T00:45:50;12.30;;;7.13;;
76733;SDS011;65660;53.288;14.666;2023-12-14T00:50:51;12.53;;;7.60;;
76733;SDS011;65660;53.288;14.666;2023-12-14T00:55:51;13.20;;;7.77;;
76733;SDS011;65660;53.288;14.666;2023-12-14T01:00:52;16.57;;;8.47;;
76733;SDS011;65660;53.288;14.666;2023-12-14T01:05:52;13.63;;;7.90;;
76733;SDS011;65660;53.288;14.666;2023-12-14T01:10:53;11.77;;;7.50;;
76733;SDS011;65660;53.288;14.666;2023-12-14T01:15:53;12.77;;;8.03;;
76733;SDS011;65660;53.288;14.666;2023-12-14T01:20:54;14.77;;;8.67;;
76733;SDS011;65660;53.288;14.666;2023-12-14T01:25:54;13.70;;;9.23;;
76733;SDS011;65660;53.288;14.666;2023-12-14T01:30:55;14.57;;;9.53;;
76733;SDS011;65660;53.288;14.666;2023-12-14T01:35:55;15.03;;;8.10;;
76733;SDS011;65660;53.288;14.666;2023-12-14T01:40:56;16.97;;;9.07;;
76733;SDS011;65660;53.288;14.666;2023-12-14T01:45:56;15.67;;;8.40;;
76733;SDS011;65660;53.288;14.666;2023-12-14T01:50:57;16.67;;;9.00;;
76733;SDS011;65660;53.288;14.666;2023-12-14T01:55:57;15.13;;;8.87;;
76733;SDS011;65660;53.288;14.666;2023-12-14T02:11:37;21.17;;;11.80;;
76733;SDS011;65660;53.288;14.666;2023-12-14T02:16:38;13.33;;;7.63;;
76733;SDS011;65660;53.288;14.666;2023-12-14T02:21:38;14.83;;;8.90;;
76733;SDS011;65660;53.288;14.666;2023-12-14T02:26:39;16.30;;;8.83;;
76733;SDS011;65660;53.288;14.666;2023-12-14T02:31:39;20.70;;;9.87;;
76733;SDS011;65660;53.288;14.666;2023-12-14T02:36:40;16.20;;;8.30;;
76733;SDS011;65660;53.288;14.666;2023-12-14T02:41:40;17.87;;;9.93;;
76733;SDS011;65660;53.288;14.666;2023-12-14T02:46:41;15.77;;;7.97;;
76733;SDS011;65660;53.288;14.666;2023-12-14T02:51:41;13.53;;;8.17;;
76733;SDS011;65660;53.288;14.666;2023-12-14T02:56:42;14.80;;;8.40;;
76733;SDS011;65660;53.288;14.666;2023-12-14T03:01:42;16.17;;;8.30;;
76733;SDS011;65660;53.288;14.666;2023-12-14T03:06:43;16.57;;;8.40;;
76733;SDS011;65660;53.288;14.666;2023-12-14T03:11:43;16.13;;;8.33;;
76733;SDS011;65660;53.288;14.666;2023-12-14T03:16:44;14.60;;;7.87;;
76733;SDS011;65660;53.288;14.666;2023-12-14T03:21:44;13.73;;;7.73;;
76733;SDS011;65660;53.288;14.666;2023-12-14T03:26:45;17.03;;;8.40;;
76733;SDS011;65660;53.288;14.666;2023-12-14T03:31:45;14.73;;;8.53;;
76733;SDS011;65660;53.288;14.666;2023-12-14T03:36:46;14.83;;;7.77;;
76733;SDS011;65660;53.288;14.666;2023-12-14T03:41:46;14.63;;;7.87;;
76733;SDS011;65660;53.288;14.666;2023-12-14T03:46:47;19.33;;;9.10;;
76733;SDS011;65660;53.288;14.666;2023-12-14T03:51:47;14.90;;;8.07;;
76733;SDS011;65660;53.288;14.666;2023-12-14T03:56:48;13.50;;;7.67;;
76733;SDS011;65660;53.288;14.666;2023-12-14T04:01:48;13.33;;;7.77;;
76733;SDS011;65660;53.288;14.666;2023-12-14T04:06:49;13.93;;;8.57;;
76733;SDS011;65660;53.288;14.666;2023-12-14T04:11:49;14.17;;;8.93;;
76733;SDS011;65660;53.288;14.666;2023-12-14T04:16:50;14.87;;;8.80;;
76733;SDS011;65660;53.288;14.666;2023-12-14T04:21:50;13.23;;;7.60;;
76733;SDS011;65660;53.288;14.666;2023-12-14T04:26:51;13.97;;;8.30;;
76733;SDS011;65660;53.288;14.666;2023-12-14T04:31:52;14.30;;;7.47;;
76733;SDS011;65660;53.288;14.666;2023-12-14T04:36:52;17.17;;;8.00;;
76733;SDS011;65660;53.288;14.666;2023-12-14T04:41:53;13.73;;;7.63;;
76733;SDS011;65660;53.288;14.666;2023-12-14T04:46:53;12.50;;;7.43;;
76733;SDS011;65660;53.288;14.666;2023-12-14T04:51:54;12.97;;;7.50;;
76733;SDS011;65660;53.288;14.666;2023-12-14T04:56:54;13.97;;;7.40;;
76733;SDS011;65660;53.288;14.666;2023-12-14T05:01:55;16.23;;;8.47;;
76733;SDS011;65660;53.288;14.666;2023-12-14T05:06:55;14.87;;;10.00;;
76733;SDS011;65660;53.288;14.666;2023-12-14T05:11:56;15.40;;;7.90;;
76733;SDS011;65660;53.288;14.666;2023-12-14T05:16:56;13.87;;;8.73;;
76733;SDS011;65660;53.288;14.666;2023-12-14T05:21:57;13.97;;;8.80;;
76733;SDS011;65660;53.288;14.666;2023-12-14T05:26:57;11.77;;;7.80;;
76733;SDS011;65660;53.288;14.666;2023-12-14T05:31:58;13.83;;;7.13;;
76733;SDS011;65660;53.288;14.666;2023-12-14T05:36:58;13.27;;;6.87;;
76733;SDS011;65660;53.288;14.666;2023-12-14T05:41:59;10.87;;;7.07;;
76733;SDS011;65660;53.288;14.666;2023-12-14T05:47:00;13.30;;;7.20;;
76733;SDS011;65660;53.288;14.666;2023-12-14T05:52:00;10.63;;;6.40;;
76733;SDS011;65660;53.288;14.666;2023-12-14T05:57:01;13.67;;;6.70;;
76733;SDS011;65660;53.288;14.666;2023-12-14T06:02:01;14.57;;;8.17;;
76733;SDS011;65660;53.288;14.666;2023-12-14T06:07:02;15.27;;;7.33;;
76733;SDS011;65660;53.288;14.666;2023-12-14T06:12:03;12.10;;;6.70;;
76733;SDS011;65660;53.288;14.666;2023-12-14T06:17:04;13.43;;;7.10;;
76733;SDS011;65660;53.288;14.666;2023-12-14T06:22:04;12.93;;;7.30;;
76733;SDS011;65660;53.288;14.666;2023-12-14T06:27:05;14.00;;;7.87;;
76733;SDS011;65660;53.288;14.666;2023-12-14T06:32:06;13.57;;;7.07;;
76733;SDS011;65660;53.288;14.666;2023-12-14T06:37:06;13.37;;;7.30;;
76733;SDS011;65660;53.288;14.666;2023-12-14T06:42:07;13.90;;;7.20;;
76733;SDS011;65660;53.288;14.666;2023-12-14T06:47:07;11.97;;;6.33;;
76733;SDS011;65660;53.288;14.666;2023-12-14T06:52:08;11.90;;;6.67;;
76733;SDS011;65660;53.288;14.666;2023-12-14T06:57:08;11.37;;;6.60;;
76733;SDS011;65660;53.288;14.666;2023-12-14T07:02:09;12.33;;;7.13;;
76733;SDS011;65660;53.288;14.666;2023-12-14T07:07:09;15.33;;;8.43;;
76733;SDS011;65660;53.288;14.666;2023-12-14T07:12:10;13.93;;;7.33;;
76733;SDS011;65660;53.288;14.666;2023-12-14T07:17:10;13.70;;;7.70;;
76733;SDS011;65660;53.288;14.666;2023-12-14T07:22:11;11.33;;;7.60;;
76733;SDS011;65660;53.288;14.666;2023-12-14T07:27:11;15.30;;;10.10;;
76733;SDS011;65660;53.288;14.666;2023-12-14T07:32:12;13.00;;;7.50;;
76733;SDS011;65660;53.288;14.666;2023-12-14T07:37:12;12.97;;;7.33;;
76733;SDS011;65660;53.288;14.666;2023-12-14T07:42:13;14.77;;;8.07;;
76733;SDS011;65660;53.288;14.666;2023-12-14T07:47:15;13.97;;;8.63;;
76733;SDS011;65660;53.288;14.666;2023-12-14T07:52:15;15.00;;;8.57;;
76733;SDS011;65660;53.288;14.666;2023-12-14T07:57:16;12.07;;;7.27;;
76733;SDS011;65660;53.288;14.666;2023-12-14T08:02:18;14.10;;;9.17;;
76733;SDS011;65660;53.288;14.666;2023-12-14T08:07:18;13.63;;;8.13;;
76733;SDS011;65660;53.288;14.666;2023-12-14T08:12:19;15.90;;;9.03;;
76733;SDS011;65660;53.288;14.666;2023-12-14T08:17:19;17.13;;;8.83;;
76733;SDS011;65660;53.288;14.666;2023-12-14T08:22:20;12.83;;;8.17;;
76733;SDS011;65660;53.288;14.666;2023-12-14T08:27:21;15.37;;;8.13;;
76733;SDS011;65660;53.288;14.666;2023-12-14T08:32:21;16.43;;;8.43;;
76733;SDS011;65660;53.288;14.666;2023-12-14T08:37:22;15.07;;;8.57;;
76733;SDS011;65660;53.288;14.666;2023-12-14T08:42:22;14.77;;;8.20;;
76733;SDS011;65660;53.288;14.666;2023-12-14T08:47:23;14.80;;;8.00;;
76733;SDS011;65660;53.288;14.666;2023-12-14T08:52:23;19.77;;;9.20;;
76733;SDS011;65660;53.288;14.666;2023-12-14T08:57:24;14.30;;;8.10;;
76733;SDS011;65660;53.288;14.666;2023-12-14T09:02:24;17.57;;;9.80;;
76733;SDS011;65660;53.288;14.666;2023-12-14T09:07:25;16.00;;;8.50;;
76733;SDS011;65660;53.288;14.666;2023-12-14T09:12:25;17.87;;;9.27;;
76733;SDS011;65660;53.288;14.666;2023-12-14T09:17:26;14.20;;;8.10;;
76733;SDS011;65660;53.288;14.666;2023-12-14T09:22:26;15.57;;;8.27;;
76733;SDS011;65660;53.288;14.666;2023-12-14T09:27:27;11.80;;;7.83;;
76733;SDS011;65660;53.288;14.666;2023-12-14T09:32:27;11.60;;;6.97;;
76733;SDS011;65660;53.288;14.666;2023-12-14T09:37:28;14.20;;;9.43;;
76733;SDS011;65660;53.288;14.666;2023-12-14T09:42:28;12.13;;;7.40;;
76733;SDS011;65660;53.288;14.666;2023-12-14T09:47:37;12.03;;;7.07;;
76733;SDS011;65660;53.288;14.666;2023-12-14T09:52:38;10.90;;;6.87;;
76733;SDS011;65660;53.288;14.666;2023-12-14T09:57:38;11.33;;;7.83;;
76733;SDS011;65660;53.288;14.666;2023-12-14T10:02:39;10.97;;;6.83;;
76733;SDS011;65660;53.288;14.666;2023-12-14T10:07:43;10.63;;;7.17;;
76733;SDS011;65660;53.288;14.666;2023-12-14T10:12:51;10.63;;;6.73;;
76733;SDS011;65660;53.288;14.666;2023-12-14T10:17:54;10.43;;;6.73;;
76733;SDS011;65660;53.288;14.666;2023-12-14T10:22:55;10.87;;;6.70;;
76733;SDS011;65660;53.288;14.666;2023-12-14T10:27:56;10.77;;;6.60;;
76733;SDS011;65660;53.288;14.666;2023-12-14T10:32:57;10.57;;;6.90;;
76733;SDS011;65660;53.288;14.666;2023-12-14T10:37:58;11.03;;;8.00;;
76733;SDS011;65660;53.288;14.666;2023-12-14T10:43:03;10.97;;;7.07;;
76733;SDS011;65660;53.288;14.666;2023-12-14T10:48:04;11.73;;;7.20;;
76733;SDS011;65660;53.288;14.666;2023-12-14T10:53:04;9.73;;;6.30;;
76733;SDS011;65660;53.288;14.666;2023-12-14T10:58:07;13.13;;;6.67;;
76733;SDS011;65660;53.288;14.666;2023-12-14T11:03:12;10.90;;;6.57;;
76733;SDS011;65660;53.288;14.666;2023-12-14T11:08:13;8.70;;;6.27;;
76733;SDS011;65660;53.288;14.666;2023-12-14T11:13:15;10.67;;;6.77;;
76733;SDS011;65660;53.288;14.666;2023-12-14T11:28:26;9.77;;;6.10;;
76733;SDS011;65660;53.288;14.666;2023-12-14T11:33:27;9.93;;;5.67;;
76733;SDS011;65660;53.288;14.666;2023-12-14T11:38:28;8.07;;;5.90;;
76733;SDS011;65660;53.288;14.666;2023-12-14T11:43:28;10.83;;;7.20;;
76733;SDS011;65660;53.288;14.666;2023-12-14T11:48:29;10.37;;;6.10;;
76733;SDS011;65660;53.288;14.666;2023-12-14T11:53:30;10.73;;;6.80;;
76733;SDS011;65660;53.288;14.666;2023-12-14T11:58:33;11.93;;;7.27;;
76733;SDS011;65660;53.288;14.666;2023-12-14T12:03:34;14.03;;;9.33;;
76733;SDS011;65660;53.288;14.666;2023-12-14T12:08:40;12.00;;;7.30;;
76733;SDS011;65660;53.288;14.666;2023-12-14T12:13:41;12.73;;;7.30;;
76733;SDS011;65660;53.288;14.666;2023-12-14T12:18:41;15.03;;;8.47;;
76733;SDS011;65660;53.288;14.666;2023-12-14T12:23:42;11.40;;;6.83;;
76733;SDS011;65660;53.288;14.666;2023-12-14T12:28:42;12.57;;;7.57;;
76733;SDS011;65660;53.288;14.666;2023-12-14T12:33:43;11.67;;;7.80;;
76733;SDS011;65660;53.288;14.666;2023-12-14T12:38:43;13.87;;;8.30;;
76733;SDS011;65660;53.288;14.666;2023-12-14T12:43:44;15.70;;;8.50;;
76733;SDS011;65660;53.288;14.666;2023-12-14T12:48:45;12.87;;;8.03;;
76733;SDS011;65660;53.288;14.666;2023-12-14T12:53:45;12.33;;;7.97;;
76733;SDS011;65660;53.288;14.666;2023-12-14T12:58:45;11.27;;;7.10;;
76733;SDS011;65660;53.288;14.666;2023-12-14T13:03:46;13.33;;;6.93;;
76733;SDS011;65660;53.288;14.666;2023-12-14T13:08:47;14.30;;;7.60;;
76733;SDS011;65660;53.288;14.666;2023-12-14T13:13:47;11.93;;;7.00;;
76733;SDS011;65660;53.288;14.666;2023-12-14T13:18:48;12.73;;;6.87;;
76733;SDS011;65660;53.288;14.666;2023-12-14T13:23:48;12.10;;;7.27;;
76733;SDS011;65660;53.288;14.666;2023-12-14T13:28:49;12.33;;;7.50;;
76733;SDS011;65660;53.288;14.666;2023-12-14T13:33:49;13.57;;;7.80;;
76733;SDS011;65660;53.288;14.666;2023-12-14T13:38:50;10.23;;;7.00;;
76733;SDS011;65660;53.288;14.666;2023-12-14T13:43:50;11.83;;;7.33;;
76733;SDS011;65660;53.288;14.666;2023-12-14T13:48:51;11.10;;;7.17;;
76733;SDS011;65660;53.288;14.666;2023-12-14T13:53:51;14.20;;;9.20;;
76733;SDS011;65660;53.288;14.666;2023-12-14T13:58:52;11.93;;;7.93;;
76733;SDS011;65660;53.288;14.666;2023-12-14T14:03:52;13.80;;;8.07;;
76733;SDS011;65660;53.288;14.666;2023-12-14T14:08:53;14.10;;;8.77;;
76733;SDS011;65660;53.288;14.666;2023-12-14T14:13:53;14.03;;;10.40;;
76733;SDS011;65660;53.288;14.666;2023-12-14T14:18:54;13.93;;;7.87;;
76733;SDS011;65660;53.288;14.666;2023-12-14T14:23:54;15.87;;;10.23;;
76733;SDS011;65660;53.288;14.666;2023-12-14T14:28:55;13.47;;;8.33;;
76733;SDS011;65660;53.288;14.666;2023-12-14T14:33:55;14.07;;;9.50;;
76733;SDS011;65660;53.288;14.666;2023-12-14T14:38:56;14.93;;;10.27;;
76733;SDS011;65660;53.288;14.666;2023-12-14T14:43:56;13.53;;;8.60;;
76733;SDS011;65660;53.288;14.666;2023-12-14T14:48:57;12.83;;;8.87;;
76733;SDS011;65660;53.288;14.666;2023-12-14T14:53:58;14.30;;;9.23;;
76733;SDS011;65660;53.288;14.666;2023-12-14T14:58:58;15.13;;;9.50;;
76733;SDS011;65660;53.288;14.666;2023-12-14T15:04:00;13.77;;;9.33;;
76733;SDS011;65660;53.288;14.666;2023-12-14T15:09:01;14.83;;;9.90;;
76733;SDS011;65660;53.288;14.666;2023-12-14T15:14:02;13.30;;;7.27;;
76733;SDS011;65660;53.288;14.666;2023-12-14T15:19:03;15.23;;;8.60;;
76733;SDS011;65660;53.288;14.666;2023-12-14T15:24:03;15.40;;;7.60;;
76733;SDS011;65660;53.288;14.666;2023-12-14T15:29:04;12.60;;;6.97;;
76733;SDS011;65660;53.288;14.666;2023-12-14T15:34:04;12.03;;;7.20;;
76733;SDS011;65660;53.288;14.666;2023-12-14T15:39:05;14.73;;;7.40;;
76733;SDS011;65660;53.288;14.666;2023-12-14T15:44:05;11.30;;;6.43;;
76733;SDS011;65660;53.288;14.666;2023-12-14T15:49:06;12.53;;;7.13;;
76733;SDS011;65660;53.288;14.666;2023-12-14T15:54:06;11.67;;;6.70;;
76733;SDS011;65660;53.288;14.666;2023-12-14T15:59:07;10.37;;;6.53;;
76733;SDS011;65660;53.288;14.666;2023-12-14T16:04:07;11.07;;;6.60;;
76733;SDS011;65660;53.288;14.666;2023-12-14T16:09:08;12.20;;;7.10;;
76733;SDS011;65660;53.288;14.666;2023-12-14T16:14:08;10.30;;;6.43;;
76733;SDS011;65660;53.288;14.666;2023-12-14T16:19:09;12.23;;;7.00;;
76733;SDS011;65660;53.288;14.666;2023-12-14T16:24:09;13.43;;;7.70;;
76733;SDS011;65660;53.288;14.666;2023-12-14T16:29:10;11.17;;;7.30;;
76733;SDS011;65660;53.288;14.666;2023-12-14T16:34:10;14.70;;;7.73;;
76733;SDS011;65660;53.288;14.666;2023-12-14T16:39:10;12.27;;;7.40;;
76733;SDS011;65660;53.288;14.666;2023-12-14T16:44:11;13.20;;;7.10;;
76733;SDS011;65660;53.288;14.666;2023-12-14T16:49:12;12.03;;;6.97;;
76733;SDS011;65660;53.288;14.666;2023-12-14T16:54:12;11.50;;;6.63;;
76733;SDS011;65660;53.288;14.666;2023-12-14T16:59:12;11.23;;;6.60;;
76733;SDS011;65660;53.288;14.666;2023-12-14T17:04:13;13.63;;;7.60;;
76733;SDS011;65660;53.288;14.666;2023-12-14T17:09:14;13.00;;;8.07;;
76733;SDS011;65660;53.288;14.666;2023-12-14T17:14:14;14.20;;;8.67;;
76733;SDS011;65660;53.288;14.666;2023-12-14T17:19:15;12.07;;;6.80;;
76733;SDS011;65660;53.288;14.666;2023-12-14T17:24:15;13.23;;;7.10;;
76733;SDS011;65660;53.288;14.666;2023-12-14T17:29:16;10.90;;;7.00;;
76733;SDS011;65660;53.288;14.666;2023-12-14T17:34:16;16.67;;;7.97;;
76733;SDS011;65660;53.288;14.666;2023-12-14T17:39:17;13.93;;;8.60;;
76733;SDS011;65660;53.288;14.666;2023-12-14T17:44:17;23.23;;;10.30;;
76733;SDS011;65660;53.288;14.666;2023-12-14T17:49:18;18.80;;;10.17;;
76733;SDS011;65660;53.288;14.666;2023-12-14T17:54:18;17.20;;;10.07;;
76733;SDS011;65660;53.288;14.666;2023-12-14T17:59:19;19.00;;;10.70;;
76733;SDS011;65660;53.288;14.666;2023-12-14T18:04:19;19.83;;;11.23;;
76733;SDS011;65660;53.288;14.666;2023-12-14T18:09:20;20.33;;;11.10;;
76733;SDS011;65660;53.288;14.666;2023-12-14T18:14:20;18.77;;;10.00;;
76733;SDS011;65660;53.288;14.666;2023-12-14T18:19:21;19.20;;;9.47;;
76733;SDS011;65660;53.288;14.666;2023-12-14T18:24:21;16.80;;;9.97;;
76733;SDS011;65660;53.288;14.666;2023-12-14T18:29:22;18.47;;;10.17;;
76733;SDS011;65660;53.288;14.666;2023-12-14T18:34:22;19.63;;;10.60;;
76733;SDS011;65660;53.288;14.666;2023-12-14T18:39:23;18.23;;;10.60;;
76733;SDS011;65660;53.288;14.666;2023-12-14T18:44:23;19.00;;;10.07;;
76733;SDS011;65660;53.288;14.666;2023-12-14T18:49:24;18.20;;;9.50;;
76733;SDS011;65660;53.288;14.666;2023-12-14T18:54:25;17.93;;;9.90;;
76733;SDS011;65660;53.288;14.666;2023-12-14T18:59:26;19.87;;;10.17;;
76733;SDS011;65660;53.288;14.666;2023-12-14T19:04:26;18.40;;;10.43;;
76733;SDS011;65660;53.288;14.666;2023-12-14T19:09:27;18.27;;;10.30;;
76733;SDS011;65660;53.288;14.666;2023-12-14T19:14:27;17.57;;;9.30;;
76733;SDS011;65660;53.288;14.666;2023-12-14T19:19:28;19.53;;;10.73;;
76733;SDS011;65660;53.288;14.666;2023-12-14T19:24:28;19.23;;;10.37;;
76733;SDS011;65660;53.288;14.666;2023-12-14T19:29:29;19.27;;;10.50;;
76733;SDS011;65660;53.288;14.666;2023-12-14T19:34:29;18.27;;;10.90;;
76733;SDS011;65660;53.288;14.666;2023-12-14T19:39:30;18.57;;;10.07;;
76733;SDS011;65660;53.288;14.666;2023-12-14T19:44:31;16.33;;;9.57;;
76733;SDS011;65660;53.288;14.666;2023-12-14T19:49:31;18.57;;;9.40;;
76733;SDS011;65660;53.288;14.666;2023-12-14T19:54:33;16.50;;;9.17;;
76733;SDS011;65660;53.288;14.666;2023-12-14T19:59:33;21.27;;;10.87;;
76733;SDS011;65660;53.288;14.666;2023-12-14T20:04:34;19.30;;;10.53;;
76733;SDS011;65660;53.288;14.666;2023-12-14T20:09:37;21.13;;;11.23;;
76733;SDS011;65660;53.288;14.666;2023-12-14T20:14:38;22.03;;;11.90;;
76733;SDS011;65660;53.288;14.666;2023-12-14T20:19:39;20.90;;;12.00;;
76733;SDS011;65660;53.288;14.666;2023-12-14T20:24:41;20.20;;;12.20;;
76733;SDS011;65660;53.288;14.666;2023-12-14T20:29:43;23.97;;;13.20;;
76733;SDS011;65660;53.288;14.666;2023-12-14T20:34:43;26.07;;;13.77;;
76733;SDS011;65660;53.288;14.666;2023-12-14T20:39:44;25.53;;;13.37;;
76733;SDS011;65660;53.288;14.666;2023-12-14T20:44:44;25.27;;;13.50;;
76733;SDS011;65660;53.288;14.666;2023-12-14T20:49:45;22.83;;;13.43;;
76733;SDS011;65660;53.288;14.666;2023-12-14T20:54:45;25.87;;;13.30;;
76733;SDS011;65660;53.288;14.666;2023-12-14T20:59:46;23.70;;;13.47;;
76733;SDS011;65660;53.288;14.666;2023-12-14T21:04:46;22.73;;;13.13;;
76733;SDS011;65660;53.288;14.666;2023-12-14T21:09:47;21.03;;;11.53;;
76733;SDS011;65660;53.288;14.666;2023-12-14T21:14:47;17.60;;;10.40;;
76733;SDS011;65660;53.288;14.666;2023-12-14T21:19:49;20.03;;;11.07;;
76733;SDS011;65660;53.288;14.666;2023-12-14T21:24:50;20.10;;;11.30;;
76733;SDS011;65660;53.288;14.666;2023-12-14T21:29:50;18.50;;;10.33;;
76733;SDS011;65660;53.288;14.666;2023-12-14T21:34:51;20.17;;;10.90;;
76733;SDS011;65660;53.288;14.666;2023-12-14T21:39:51;18.10;;;11.20;;
76733;SDS011;65660;53.288;14.666;2023-12-14T21:44:52;23.13;;;12.47;;
76733;SDS011;65660;53.288;14.666;2023-12-14T21:49:53;20.53;;;11.13;;
76733;SDS011;65660;53.288;14.666;2023-12-14T21:54:53;20.97;;;11.83;;
76733;SDS011;65660;53.288;14.666;2023-12-14T21:59:54;21.37;;;11.60;;
76733;SDS011;65660;53.288;14.666;2023-12-14T22:04:54;21.37;;;13.20;;
76733;SDS011;65660;53.288;14.666;2023-12-14T22:09:56;21.43;;;12.83;;
76733;SDS011;65660;53.288;14.666;2023-12-14T22:14:56;23.90;;;12.00;;
76733;SDS011;65660;53.288;14.666;2023-12-14T22:19:57;19.63;;;11.13;;
76733;SDS011;65660;53.288;14.666;2023-12-14T22:24:57;25.10;;;12.43;;
76733;SDS011;65660;53.288;14.666;2023-12-14T22:29:58;23.17;;;11.27;;
76733;SDS011;65660;53.288;14.666;2023-12-14T22:34:58;22.00;;;11.27;;
76733;SDS011;65660;53.288;14.666;2023-12-14T22:39:59;21.10;;;10.90;;
76733;SDS011;65660;53.288;14.666;2023-12-14T22:45:00;22.43;;;10.50;;
76733;SDS011;65660;53.288;14.666;2023-12-14T22:50:00;20.67;;;11.17;;
76733;SDS011;65660;53.288;14.666;2023-12-14T22:55:01;19.87;;;10.83;;
76733;SDS011;65660;53.288;14.666;2023-12-14T23:00:02;22.03;;;10.57;;
76733;SDS011;65660;53.288;14.666;2023-12-14T23:05:04;21.60;;;11.23;;
76733;SDS011;65660;53.288;14.666;2023-12-14T23:10:05;21.80;;;10.63;;
76733;SDS011;65660;53.288;14.666;2023-12-14T23:15:08;18.67;;;10.40;;
76733;SDS011;65660;53.288;14.666;2023-12-14T23:20:09;18.30;;;10.30;;
76733;SDS011;65660;53.288;14.666;2023-12-14T23:25:10;18.90;;;10.10;;
76733;SDS011;65660;53.288;14.666;2023-12-14T23:30:10;17.50;;;9.97;;
76733;SDS011;65660;53.288;14.666;2023-12-14T23:35:11;22.03;;;10.80;;
76733;SDS011;65660;53.288;14.666;2023-12-14T23:40:12;17.80;;;9.83;;
76733;SDS011;65660;53.288;14.666;2023-12-14T23:45:12;20.67;;;11.07;;
76733;SDS011;65660;53.288;14.666;2023-12-14T23:50:13;19.20;;;10.37;;
76733;SDS011;65660;53.288;14.666;2023-12-14T23:55:14;17.43;;;9.97;;
